Time;durP1;ratioP1;P1;durP2;ratioP2;P2;SDS_P1;SDS_P2;PMS_P1;PMS_P2;Temp;Humidity;BMP_temperature;BMP_pressure;BME280_temperature;BME280_humidity;BME280_pressure;Samples;Min_cycle;Max_cycle;Signal;HPM_P1;HPM_P2
2021/08/16 00:00:15;;;;;;;3.42;2.30;;;22.10;71.40;;;;;;5117639;28;20047;-71
2021/08/16 00:02:42;;;;;;;5.00;2.40;;;22.10;71.50;;;;;;5118111;28;20040;-72
2021/08/16 00:05:09;;;;;;;4.32;2.13;;;22.10;71.50;;;;;;5117764;28;20067;-72
2021/08/16 00:07:35;;;;;;;6.53;2.67;;;22.00;71.40;;;;;;5117322;28;20123;-72
2021/08/16 00:10:01;;;;;;;4.57;2.55;;;22.00;71.40;;;;;;5117372;28;20409;-72
2021/08/16 00:12:27;;;;;;;4.00;2.30;;;22.10;71.40;;;;;;5117014;28;20043;-71
2021/08/16 00:14:52;;;;;;;6.00;2.40;;;22.00;71.40;;;;;;5116623;28;20043;-71
2021/08/16 00:17:18;;;;;;;5.63;2.30;;;22.00;71.40;;;;;;5117090;28;20082;-71
2021/08/16 00:19:44;;;;;;;5.55;2.58;;;22.00;71.40;;;;;;5117640;28;20510;-71
2021/08/16 00:22:10;;;;;;;5.25;2.53;;;22.10;71.40;;;;;;5116893;28;20438;-71
2021/08/16 00:24:36;;;;;;;5.03;2.50;;;22.00;71.30;;;;;;5117084;28;20050;-72
2021/08/16 00:27:02;;;;;;;3.50;2.45;;;22.10;71.40;;;;;;5116905;28;20044;-71
2021/08/16 00:29:28;;;;;;;4.53;2.55;;;22.00;71.30;;;;;;5116808;28;20070;-72
2021/08/16 00:31:54;;;;;;;4.50;2.30;;;22.00;71.30;;;;;;5117569;28;20067;-72
2021/08/16 00:34:20;;;;;;;4.10;2.15;;;22.00;71.20;;;;;;5117077;28;20051;-71
2021/08/16 00:36:45;;;;;;;4.53;2.53;;;22.00;71.30;;;;;;5117262;28;20043;-72
2021/08/16 00:39:11;;;;;;;4.95;2.50;;;22.00;71.30;;;;;;5117427;28;20092;-72
2021/08/16 00:41:39;;;;;;;3.08;1.80;;;22.00;71.30;;;;;;5116635;28;20081;-71
2021/08/16 00:44:08;;;;;;;4.38;2.45;;;22.00;71.30;;;;;;5116884;28;20032;-71
2021/08/16 00:46:35;;;;;;;3.55;2.08;;;22.00;71.30;;;;;;5116606;28;20043;-72
2021/08/16 00:49:01;;;;;;;4.05;2.00;;;22.00;71.30;;;;;;5116658;28;20334;-72
2021/08/16 00:51:30;;;;;;;4.40;2.20;;;22.00;71.30;;;;;;5116683;28;20039;-72
2021/08/16 00:53:56;;;;;;;4.10;2.15;;;22.00;71.30;;;;;;5116284;28;20044;-72
2021/08/16 00:56:26;;;;;;;3.53;1.75;;;22.00;71.30;;;;;;5116186;28;20054;-72
2021/08/16 00:58:54;;;;;;;4.65;2.67;;;22.00;71.40;;;;;;5116602;28;20043;-71
2021/08/16 01:01:21;;;;;;;3.75;1.90;;;22.00;71.30;;;;;;5116226;28;20104;-71
2021/08/16 01:03:47;;;;;;;3.67;1.83;;;22.00;71.40;;;;;;5116214;28;20434;-72
2021/08/16 01:06:13;;;;;;;4.22;2.22;;;22.00;71.30;;;;;;5116267;28;20071;-71
2021/08/16 01:08:39;;;;;;;3.58;1.83;;;22.00;71.30;;;;;;5116274;28;20067;-71
2021/08/16 01:11:05;;;;;;;3.47;2.08;;;22.00;71.40;;;;;;5116482;28;20363;-72
2021/08/16 01:13:31;;;;;;;5.38;2.28;;;22.00;71.40;;;;;;5116282;28;20431;-72
2021/08/16 01:16:01;;;;;;;4.43;2.10;;;22.00;71.40;;;;;;5115922;28;20031;-71
2021/08/16 01:18:29;;;;;;;4.30;2.00;;;22.00;71.40;;;;;;5115807;28;20492;-71
2021/08/16 01:20:55;;;;;;;4.15;2.35;;;22.00;71.40;;;;;;5115900;28;20070;-72
2021/08/16 01:23:22;;;;;;;4.65;2.47;;;22.00;71.40;;;;;;5116115;28;20078;-71
2021/08/16 01:25:49;;;;;;;4.50;2.13;;;22.00;71.40;;;;;;5116428;28;20370;-72
2021/08/16 01:28:17;;;;;;;4.35;2.08;;;22.00;71.40;;;;;;5116176;28;20104;-71
2021/08/16 01:30:44;;;;;;;4.18;2.17;;;21.90;71.30;;;;;;5116097;28;20063;-72
2021/08/16 01:33:10;;;;;;;2.90;2.00;;;21.90;71.30;;;;;;5116497;28;20058;-71
2021/08/16 01:35:36;;;;;;;4.18;2.00;;;21.90;71.30;;;;;;5116456;28;20110;-72
2021/08/16 01:38:02;;;;;;;4.65;1.92;;;21.90;71.40;;;;;;5116515;28;20039;-72
2021/08/16 01:40:27;;;;;;;3.63;2.03;;;21.90;72.00;;;;;;5115818;28;20043;-73
2021/08/16 01:42:54;;;;;;;4.18;2.30;;;21.90;71.40;;;;;;5115336;28;20062;-71
2021/08/16 01:45:19;;;;;;;4.93;2.47;;;21.90;71.40;;;;;;5116190;28;20040;-71
2021/08/16 01:47:45;;;;;;;4.30;1.90;;;21.90;71.40;;;;;;5116080;28;20044;-72
2021/08/16 01:50:11;;;;;;;3.42;2.10;;;21.90;71.40;;;;;;5115683;28;20104;-72
2021/08/16 01:52:37;;;;;;;5.60;2.53;;;21.90;71.40;;;;;;5115954;28;20051;-72
2021/08/16 01:55:04;;;;;;;3.10;1.90;;;21.90;71.40;;;;;;5116278;28;20043;-72
2021/08/16 01:57:30;;;;;;;3.40;2.17;;;21.90;71.40;;;;;;5114999;28;20052;-71
2021/08/16 01:59:56;;;;;;;3.13;1.77;;;21.90;71.40;;;;;;5115580;28;20440;-71
2021/08/16 02:02:22;;;;;;;4.70;2.50;;;21.90;71.40;;;;;;5115886;28;20114;-71
2021/08/16 02:04:48;;;;;;;4.50;2.33;;;21.90;71.40;;;;;;5115857;28;20101;-71
2021/08/16 02:07:14;;;;;;;3.40;2.17;;;21.90;71.40;;;;;;5115381;28;20044;-72
2021/08/16 02:09:41;;;;;;;4.25;2.10;;;21.90;71.40;;;;;;5115403;28;20055;-72
2021/08/16 02:12:07;;;;;;;3.28;2.10;;;21.90;71.40;;;;;;5115051;28;20036;-71
2021/08/16 02:14:33;;;;;;;5.20;2.45;;;21.90;71.50;;;;;;5115369;28;20109;-71
2021/08/16 02:16:59;;;;;;;4.35;1.88;;;21.90;71.40;;;;;;5115713;28;20039;-72
2021/08/16 02:19:25;;;;;;;3.08;1.88;;;21.80;71.40;;;;;;5115433;28;20043;-72
2021/08/16 02:21:51;;;;;;;4.75;2.28;;;21.90;71.50;;;;;;5115467;28;20046;-71
2021/08/16 02:24:17;;;;;;;4.13;1.92;;;21.90;71.50;;;;;;5115226;28;20435;-71
2021/08/16 02:26:43;;;;;;;3.53;2.15;;;21.80;71.50;;;;;;5115426;28;20449;-71
2021/08/16 02:29:11;;;;;;;4.28;1.80;;;21.80;71.50;;;;;;5115781;28;20043;-71
2021/08/16 02:31:37;;;;;;;3.08;1.75;;;21.90;71.50;;;;;;5115182;28;20107;-72
2021/08/16 02:34:02;;;;;;;4.60;2.33;;;21.90;71.50;;;;;;5115393;28;20051;-71
2021/08/16 02:36:28;;;;;;;2.97;2.05;;;21.90;71.60;;;;;;5115935;28;20445;-71
2021/08/16 02:38:54;;;;;;;4.18;2.33;;;21.90;71.50;;;;;;5119020;28;20047;-72
2021/08/16 02:41:20;;;;;;;3.97;1.92;;;21.80;71.40;;;;;;5118906;28;20047;-71
2021/08/16 02:43:46;;;;;;;2.13;1.50;;;21.80;71.50;;;;;;5119431;28;20446;-72
2021/08/16 02:46:12;;;;;;;4.10;2.30;;;21.90;71.60;;;;;;5119319;28;20392;-71
2021/08/16 02:48:38;;;;;;;3.92;1.75;;;21.90;71.50;;;;;;5118705;28;20046;-72
2021/08/16 02:51:04;;;;;;;3.08;2.00;;;21.80;71.50;;;;;;5119378;28;20325;-71
2021/08/16 02:53:30;;;;;;;3.40;2.15;;;21.80;71.50;;;;;;5119002;28;20035;-71
2021/08/16 02:55:56;;;;;;;4.05;2.00;;;21.80;71.50;;;;;;5118262;28;20061;-71
2021/08/16 02:58:23;;;;;;;5.22;2.05;;;21.80;71.40;;;;;;5118142;28;20058;-71
2021/08/16 03:00:49;;;;;;;3.95;1.90;;;21.80;71.40;;;;;;5118671;28;20039;-71
2021/08/16 03:03:15;;;;;;;3.75;2.10;;;21.80;71.40;;;;;;5118691;28;20318;-72
2021/08/16 03:05:41;;;;;;;4.93;2.30;;;21.80;71.40;;;;;;5118768;28;20063;-71
2021/08/16 03:08:07;;;;;;;4.75;2.17;;;21.80;71.40;;;;;;5118446;28;20389;-71
2021/08/16 03:10:34;;;;;;;3.45;2.03;;;21.80;71.40;;;;;;5118855;28;20138;-71
2021/08/16 03:13:00;;;;;;;3.53;2.10;;;21.80;71.50;;;;;;5118316;28;20044;-71
2021/08/16 03:15:27;;;;;;;3.40;1.98;;;21.80;71.50;;;;;;5118738;28;20050;-71
2021/08/16 03:17:53;;;;;;;3.85;1.98;;;21.80;71.40;;;;;;5118478;28;20035;-72
2021/08/16 03:20:19;;;;;;;3.80;1.90;;;21.80;71.40;;;;;;5118201;28;20036;-71
2021/08/16 03:22:44;;;;;;;2.95;1.77;;;21.70;71.40;;;;;;5118273;28;20490;-71
2021/08/16 03:25:11;;;;;;;3.60;2.05;;;21.80;71.40;;;;;;5118294;28;20035;-71
2021/08/16 03:27:38;;;;;;;3.10;1.75;;;21.80;71.40;;;;;;5118097;28;20047;-71
2021/08/16 03:30:05;;;;;;;3.10;1.85;;;21.70;71.40;;;;;;5118519;28;20096;-72
2021/08/16 03:32:31;;;;;;;4.28;1.95;;;21.70;71.40;;;;;;5118199;28;20039;-71
2021/08/16 03:34:57;;;;;;;3.30;1.88;;;21.70;71.40;;;;;;5118795;28;20429;-71
2021/08/16 03:37:23;;;;;;;3.95;2.22;;;21.70;71.40;;;;;;5117955;28;20039;-70
2021/08/16 03:39:49;;;;;;;2.88;1.38;;;21.70;71.40;;;;;;5117477;28;20039;-71
2021/08/16 03:42:15;;;;;;;3.28;1.45;;;21.70;71.40;;;;;;5117823;28;20439;-71
2021/08/16 03:44:40;;;;;;;2.67;1.77;;;21.70;72.00;;;;;;5117506;28;20039;-71
2021/08/16 03:47:06;;;;;;;2.72;1.58;;;21.70;71.40;;;;;;5117919;28;20075;-71
2021/08/16 03:49:33;;;;;;;2.53;1.50;;;21.70;71.40;;;;;;5116634;28;20044;-71
2021/08/16 03:51:59;;;;;;;4.70;2.22;;;21.70;71.40;;;;;;5117954;28;20036;-71
2021/08/16 03:54:25;;;;;;;2.58;1.65;;;21.70;71.40;;;;;;5117687;28;20107;-71
2021/08/16 03:56:51;;;;;;;3.42;1.52;;;21.70;71.40;;;;;;5117241;28;20438;-71
2021/08/16 03:59:16;;;;;;;3.10;1.65;;;21.70;71.40;;;;;;5118353;28;20044;-72
2021/08/16 04:01:42;;;;;;;2.47;1.45;;;21.70;71.40;;;;;;5117756;28;20047;-71
2021/08/16 04:04:08;;;;;;;2.83;1.55;;;21.60;71.40;;;;;;5117793;28;20151;-72
2021/08/16 04:06:34;;;;;;;3.33;1.23;;;21.70;71.50;;;;;;5117455;28;20109;-72
2021/08/16 04:09:00;;;;;;;3.05;1.30;;;21.70;71.50;;;;;;5117159;28;20036;-71
2021/08/16 04:11:27;;;;;;;3.28;1.50;;;21.70;71.50;;;;;;5117252;28;20423;-71
2021/08/16 04:13:54;;;;;;;2.40;1.20;;;21.60;71.40;;;;;;5117086;28;20167;-72
2021/08/16 04:16:20;;;;;;;2.75;1.40;;;21.70;71.40;;;;;;5117931;28;20076;-71
2021/08/16 04:18:46;;;;;;;4.13;1.73;;;21.60;71.40;;;;;;5117065;28;20439;-72
2021/08/16 04:21:12;;;;;;;5.63;1.80;;;21.60;71.30;;;;;;5116905;28;20031;-71
2021/08/16 04:23:38;;;;;;;2.30;1.25;;;21.60;71.40;;;;;;5117432;28;20108;-71
2021/08/16 04:26:04;;;;;;;1.75;1.15;;;21.60;71.30;;;;;;5117434;28;20046;-71
2021/08/16 04:28:30;;;;;;;2.90;1.50;;;21.60;71.30;;;;;;5117259;28;20040;-71
2021/08/16 04:30:56;;;;;;;2.42;1.40;;;21.60;71.40;;;;;;5117659;28;20043;-72
2021/08/16 04:33:24;;;;;;;3.05;1.70;;;21.60;71.40;;;;;;5116744;28;20040;-72
2021/08/16 04:35:52;;;;;;;2.67;1.33;;;21.60;71.40;;;;;;5117479;28;20047;-72
2021/08/16 04:38:19;;;;;;;2.90;1.40;;;21.60;71.40;;;;;;5117067;28;20118;-71
2021/08/16 04:40:50;;;;;;;2.78;1.20;;;21.60;71.30;;;;;;5117157;28;20036;-71
2021/08/16 04:43:17;;;;;;;2.65;1.23;;;21.60;71.30;;;;;;5116978;28;20152;-72
2021/08/16 04:45:43;;;;;;;2.22;1.20;;;21.60;71.40;;;;;;5116675;28;20039;-72
2021/08/16 04:48:09;;;;;;;2.95;1.08;;;21.60;71.40;;;;;;5117238;28;20445;-71
2021/08/16 04:50:36;;;;;;;3.53;1.27;;;21.50;71.40;;;;;;5116387;28;20062;-71
2021/08/16 04:53:02;;;;;;;1.83;1.15;;;21.50;71.30;;;;;;5116958;28;20126;-71
2021/08/16 04:55:28;;;;;;;1.90;1.20;;;21.50;71.40;;;;;;5116534;28;20472;-71
2021/08/16 04:57:53;;;;;;;2.10;1.10;;;21.50;71.40;;;;;;5101794;28;20052;-71
2021/08/16 05:00:24;;;;;;;3.53;1.63;;;21.50;71.40;;;;;;5095664;28;20032;-70
2021/08/16 05:02:50;;;;;;;2.78;1.42;;;21.50;71.40;;;;;;5096060;28;20059;-71
2021/08/16 05:05:16;;;;;;;2.10;1.00;;;21.50;71.40;;;;;;5095862;28;20071;-71
2021/08/16 05:07:47;;;;;;;2.72;1.23;;;21.50;71.40;;;;;;5095794;28;20133;-71
2021/08/16 05:10:13;;;;;;;2.85;1.15;;;21.50;71.40;;;;;;5095906;28;20051;-71
2021/08/16 05:12:40;;;;;;;3.08;0.90;;;21.50;71.40;;;;;;5095981;28;20112;-71
2021/08/16 05:15:06;;;;;;;3.97;1.73;;;21.50;71.40;;;;;;5095757;28;20036;-71
2021/08/16 05:17:33;;;;;;;2.70;1.50;;;21.50;71.40;;;;;;5095756;28;20047;-70
2021/08/16 05:20:00;;;;;;;4.65;1.10;;;21.50;72.10;;;;;;5094997;28;20512;-71
2021/08/16 05:22:27;;;;;;;3.30;1.33;;;21.40;71.50;;;;;;5095991;28;20296;-71
2021/08/16 05:24:53;;;;;;;2.95;1.13;;;21.50;71.50;;;;;;5078025;28;20047;-71
2021/08/16 05:27:40;;;;;;;3.42;1.48;;;21.40;71.50;;;;;;5060777;28;20125;-73
2021/08/16 05:30:07;;;;;;;6.03;1.35;;;21.40;71.50;;;;;;5075511;28;20048;-71
2021/08/16 05:32:36;;;;;;;4.63;1.30;;;21.40;71.60;;;;;;5075296;28;20443;-72
2021/08/16 05:35:02;;;;;;;7.40;1.50;;;21.40;71.70;;;;;;5075245;28;20101;-72
2021/08/16 05:37:28;;;;;;;3.72;1.40;;;21.40;71.80;;;;;;5075410;28;20032;-72
2021/08/16 05:39:54;;;;;;;5.65;1.77;;;21.40;71.70;;;;;;5075285;28;20458;-72
2021/08/16 05:42:20;;;;;;;3.78;1.23;;;21.40;71.60;;;;;;5075142;28;20145;-76
2021/08/16 05:44:47;;;;;;;7.32;1.30;;;21.40;71.50;;;;;;5075276;28;20047;-72
2021/08/16 05:47:13;;;;;;;3.67;1.23;;;21.40;71.50;;;;;;5075105;28;20059;-74
2021/08/16 05:49:39;;;;;;;5.82;1.33;;;21.40;71.50;;;;;;5075099;28;20072;-72
2021/08/16 05:52:06;;;;;;;6.30;1.10;;;21.40;71.70;;;;;;5075799;28;20546;-76
2021/08/16 05:54:32;;;;;;;7.43;1.80;;;21.40;71.60;;;;;;5075292;28;20044;-71
2021/08/16 05:57:01;;;;;;;6.65;1.35;;;21.40;71.70;;;;;;5074439;28;20098;-71
2021/08/16 05:59:27;;;;;;;3.35;0.98;;;21.30;71.70;;;;;;5075318;28;20106;-72
2021/08/16 06:01:53;;;;;;;4.90;1.30;;;21.30;71.70;;;;;;5074892;28;20044;-72
2021/08/16 06:04:18;;;;;;;4.30;1.02;;;21.30;71.80;;;;;;5075555;28;20056;-71
2021/08/16 06:06:44;;;;;;;6.22;1.27;;;21.40;71.80;;;;;;5074752;28;20076;-71
2021/08/16 06:09:10;;;;;;;3.10;1.23;;;21.30;71.80;;;;;;5075127;28;20040;-72
2021/08/16 06:11:36;;;;;;;5.38;1.55;;;21.30;71.80;;;;;;5076101;28;20417;-70
2021/08/16 06:14:02;;;;;;;4.60;1.13;;;21.30;71.80;;;;;;5061440;28;20117;-70
2021/08/16 06:16:28;;;;;;;7.82;1.65;;;21.30;71.80;;;;;;5078901;28;20463;-71
2021/08/16 06:18:54;;;;;;;10.02;1.50;;;21.30;71.70;;;;;;5078991;28;20080;-71
2021/08/16 06:21:20;;;;;;;10.20;1.45;;;21.30;71.60;;;;;;5078572;28;20037;-71
2021/08/16 06:23:47;;;;;;;13.85;2.55;;;21.30;71.70;;;;;;5078790;28;20317;-74
2021/08/16 06:26:13;;;;;;;9.70;1.80;;;21.30;72.00;;;;;;5078714;28;20436;-72
2021/08/16 06:28:39;;;;;;;6.32;1.45;;;21.30;72.10;;;;;;5078897;28;20044;-72
2021/08/16 06:31:04;;;;;;;8.00;1.73;;;21.30;72.30;;;;;;5079056;28;20358;-71
2021/08/16 06:33:30;;;;;;;7.00;1.60;;;21.30;72.60;;;;;;5078451;28;20052;-72
2021/08/16 06:35:56;;;;;;;8.70;1.33;;;21.40;72.70;;;;;;5078137;28;20048;-72
2021/08/16 06:38:24;;;;;;;7.72;1.30;;;21.30;72.70;;;;;;5078793;28;20432;-72
2021/08/16 06:40:52;;;;;;;5.03;1.45;;;21.40;73.00;;;;;;5079122;28;20032;-73
2021/08/16 06:43:18;;;;;;;4.43;1.58;;;21.40;72.90;;;;;;5079168;28;20046;-76
2021/08/16 06:45:44;;;;;;;6.63;1.80;;;21.40;73.20;;;;;;5078331;28;20047;-73
2021/08/16 06:48:11;;;;;;;9.82;1.45;;;21.40;73.10;;;;;;5078303;28;20059;-73
2021/08/16 06:50:38;;;;;;;10.05;1.35;;;21.40;73.10;;;;;;5077898;28;20033;-73
2021/08/16 06:53:05;;;;;;;5.20;1.30;;;21.40;73.00;;;;;;5078208;28;20132;-73
2021/08/16 06:55:31;;;;;;;13.65;1.30;;;21.40;72.80;;;;;;5077903;28;20048;-73
2021/08/16 06:57:57;;;;;;;5.97;1.10;;;21.40;72.70;;;;;;5077287;28;20063;-74
2021/08/16 07:00:22;;;;;;;8.82;1.45;;;21.40;72.60;;;;;;5077813;28;20086;-73
2021/08/16 07:02:48;;;;;;;12.68;1.67;;;21.40;72.50;;;;;;5078061;28;20048;-71
2021/08/16 07:05:14;;;;;;;5.80;1.33;;;21.40;72.70;;;;;;5078491;28;20324;-75
2021/08/16 07:07:40;;;;;;;7.43;1.27;;;21.40;72.80;;;;;;5078114;28;20114;-74
2021/08/16 07:10:06;;;;;;;15.77;1.67;;;21.40;72.30;;;;;;5080549;28;20408;-75
2021/08/16 07:12:32;;;;;;;5.63;1.48;;;21.40;71.80;;;;;;5090516;28;20044;-73
2021/08/16 07:14:59;;;;;;;9.63;1.52;;;21.40;71.60;;;;;;5090894;28;20621;-72
2021/08/16 07:17:25;;;;;;;12.68;1.83;;;21.40;71.60;;;;;;5089143;28;20048;-72
2021/08/16 07:19:51;;;;;;;6.88;1.60;;;21.40;71.50;;;;;;5080275;28;20135;-74
2021/08/16 07:22:17;;;;;;;8.20;1.73;;;21.40;71.30;;;;;;5077484;28;20036;-74
2021/08/16 07:24:43;;;;;;;12.00;1.63;;;21.40;71.00;;;;;;5077575;28;20190;-74
2021/08/16 07:27:09;;;;;;;9.15;2.25;;;21.40;70.70;;;;;;5077310;28;20041;-72
2021/08/16 07:29:35;;;;;;;9.02;1.80;;;21.30;70.80;;;;;;5077479;28;20036;-74
2021/08/16 07:32:01;;;;;;;14.25;2.08;;;21.30;70.50;;;;;;5078039;28;20328;-73
2021/08/16 07:34:26;;;;;;;14.73;2.67;;;21.30;70.10;;;;;;5077680;28;20048;-73
2021/08/16 07:36:54;;;;;;;12.52;2.22;;;21.30;71.10;;;;;;5077516;28;20041;-74
2021/08/16 07:39:23;;;;;;;7.55;2.25;;;21.30;70.90;;;;;;5077334;28;20048;-72
2021/08/16 07:41:49;;;;;;;10.20;2.55;;;21.40;71.10;;;;;;5077107;28;20336;-72
2021/08/16 07:44:15;;;;;;;13.60;2.97;;;21.40;71.00;;;;;;5077055;28;20040;-73
2021/08/16 07:46:42;;;;;;;9.55;2.35;;;21.40;70.50;;;;;;5077046;28;20032;-73
2021/08/16 07:49:08;;;;;;;17.08;2.25;;;21.40;70.00;;;;;;5077228;28;20351;-72
2021/08/16 07:51:34;;;;;;;15.30;2.78;;;21.30;69.60;;;;;;5081772;28;20116;-72
2021/08/16 07:53:59;;;;;;;10.63;2.20;;;21.30;70.50;;;;;;5097456;28;20477;-72
2021/08/16 07:56:26;;;;;;;16.00;2.45;;;21.40;70.80;;;;;;5088406;28;20049;-73
2021/08/16 07:58:51;;;;;;;9.25;2.25;;;21.30;69.80;;;;;;5077207;28;20492;-73
2021/08/16 08:01:17;;;;;;;9.60;2.28;;;21.30;70.40;;;;;;5093686;28;20119;-74
2021/08/16 08:03:43;;;;;;;9.68;2.28;;;21.40;70.90;;;;;;5080199;28;20400;-74
2021/08/16 08:06:09;;;;;;;8.88;2.15;;;21.40;69.80;;;;;;5097061;28;20036;-74
2021/08/16 08:08:35;;;;;;;11.80;2.33;;;21.40;68.50;;;;;;5095674;28;20055;-74
2021/08/16 08:11:01;;;;;;;14.02;2.30;;;21.40;67.70;;;;;;5096694;28;20036;-76
2021/08/16 08:13:27;;;;;;;10.88;2.38;;;21.40;67.10;;;;;;5097373;28;20044;-77
2021/08/16 08:15:54;;;;;;;14.63;2.95;;;21.40;66.80;;;;;;5096847;28;20111;-73
2021/08/16 08:18:20;;;;;;;11.80;3.03;;;21.30;66.50;;;;;;5097130;28;20434;-76
2021/08/16 08:20:46;;;;;;;7.18;2.17;;;21.30;66.60;;;;;;5096998;28;20043;-77
2021/08/16 08:23:12;;;;;;;11.20;2.33;;;21.30;66.50;;;;;;5096709;28;20105;-73
2021/08/16 08:25:40;;;;;;;10.90;3.08;;;21.30;66.30;;;;;;5082733;28;20036;-76
2021/08/16 08:28:11;;;;;;;13.20;2.90;;;21.30;66.50;;;;;;5079036;28;20431;-67
2021/08/16 08:30:40;;;;;;;10.77;2.38;;;21.30;67.00;;;;;;5076994;28;20044;-75
2021/08/16 08:33:06;;;;;;;9.77;2.40;;;21.30;67.40;;;;;;5077638;28;20086;-77
2021/08/16 08:35:32;;;;;;;16.95;2.65;;;21.30;67.60;;;;;;5075340;28;20044;-73
2021/08/16 08:37:58;;;;;;;9.07;2.45;;;21.30;67.70;;;;;;5075946;28;20134;-74
2021/08/16 08:40:24;;;;;;;10.57;2.63;;;21.30;67.90;;;;;;5076293;28;20385;-73
2021/08/16 08:42:55;;;;;;;13.05;2.40;;;21.30;68.00;;;;;;5076276;28;20048;-74
2021/08/16 08:45:26;;;;;;;20.52;3.40;;;21.30;67.60;;;;;;5076666;28;20128;-71
2021/08/16 08:47:52;;;;;;;21.13;3.15;;;21.30;67.90;;;;;;5091446;28;20047;-73
2021/08/16 08:50:19;;;;;;;18.48;3.72;;;21.40;68.10;;;;;;5096168;28;20035;-73
2021/08/16 08:52:45;;;;;;;24.65;3.72;;;21.30;68.70;;;;;;5096062;28;20113;-73
2021/08/16 08:55:13;;;;;;;11.15;2.10;;;21.40;68.10;;;;;;5096522;28;20043;-73
2021/08/16 08:57:39;;;;;;;11.55;2.53;;;21.40;67.70;;;;;;5095714;28;20048;-73
2021/08/16 09:00:08;;;;;;;9.88;2.50;;;21.30;67.30;;;;;;5095941;28;20090;-73
2021/08/16 09:02:34;;;;;;;8.52;1.90;;;21.30;67.50;;;;;;5095305;28;20040;-73
2021/08/16 09:05:02;;;;;;;9.95;2.05;;;21.30;67.60;;;;;;5096478;28;20136;-73
2021/08/16 09:07:35;;;;;;;7.47;1.55;;;21.30;67.50;;;;;;5095790;28;20036;-73
2021/08/16 09:10:04;;;;;;;10.40;1.80;;;21.30;67.40;;;;;;5095764;28;20043;-74
2021/08/16 09:12:32;;;;;;;8.63;1.40;;;21.20;67.00;;;;;;5094217;28;20040;-73
2021/08/16 09:14:58;;;;;;;5.97;1.88;;;21.20;66.80;;;;;;5075614;28;20442;-72
2021/08/16 09:17:32;;;;;;;8.77;2.03;;;21.20;67.10;;;;;;5075762;28;20127;-72
2021/08/16 09:19:59;;;;;;;11.05;1.88;;;21.20;66.80;;;;;;5075924;28;20039;-72
2021/08/16 09:22:31;;;;;;;9.55;1.95;;;21.20;67.10;;;;;;5075690;28;20116;-72
2021/08/16 09:25:08;;;;;;;6.65;1.60;;;21.10;67.10;;;;;;5075318;28;20427;-73
2021/08/16 09:27:46;;;;;;;7.32;1.67;;;21.20;67.10;;;;;;5075381;28;20439;-73
2021/08/16 09:30:16;;;;;;;8.82;2.17;;;21.20;66.90;;;;;;5074918;28;20044;-73
2021/08/16 09:32:44;;;;;;;7.10;1.58;;;21.10;67.10;;;;;;5075376;28;20048;-73
2021/08/16 09:35:15;;;;;;;7.13;1.70;;;21.10;66.90;;;;;;5075257;28;20044;-73
2021/08/16 09:37:41;;;;;;;4.47;1.40;;;21.10;66.20;;;;;;5075879;28;20036;-73
2021/08/16 09:40:17;;;;;;;5.00;1.30;;;21.00;66.60;;;;;;5075547;28;20043;-74
2021/08/16 09:42:55;;;;;;;8.27;1.85;;;21.10;66.90;;;;;;5077950;28;20036;-73
2021/08/16 09:45:37;;;;;;;6.55;1.58;;;21.00;66.70;;;;;;5095525;28;20040;-73
2021/08/16 09:48:04;;;;;;;4.80;1.77;;;21.00;66.60;;;;;;5095427;28;20051;-74
2021/08/16 09:50:40;;;;;;;7.30;1.88;;;21.00;66.80;;;;;;5095542;28;20060;-73
2021/08/16 09:53:11;;;;;;;7.88;1.98;;;21.00;66.60;;;;;;5095122;28;20035;-74
2021/08/16 09:55:40;;;;;;;8.02;1.92;;;20.90;67.20;;;;;;5095580;28;20093;-74
2021/08/16 09:58:13;;;;;;;6.40;2.03;;;21.00;67.30;;;;;;5095247;28;20105;-74
2021/08/16 10:00:40;;;;;;;6.07;2.28;;;21.00;67.00;;;;;;5095125;28;20040;-73
2021/08/16 10:03:11;;;;;;;10.10;2.63;;;21.00;66.90;;;;;;5095952;28;20107;-73
2021/08/16 10:05:39;;;;;;;5.65;2.10;;;21.00;66.80;;;;;;5095376;28;20040;-74
2021/08/16 10:08:10;;;;;;;7.50;1.85;;;21.00;66.10;;;;;;5095067;28;20044;-73
2021/08/16 10:10:37;;;;;;;4.90;2.08;;;21.00;65.30;;;;;;5095180;28;20036;-74
2021/08/16 10:13:05;;;;;;;8.82;2.22;;;21.00;65.40;;;;;;5091645;28;20040;-74
2021/08/16 10:15:39;;;;;;;10.65;2.53;;;20.90;64.70;;;;;;5095044;28;20044;-74
2021/08/16 10:18:10;;;;;;;6.95;1.70;;;20.90;64.80;;;;;;5095057;28;20044;-73
2021/08/16 10:20:36;;;;;;;10.05;1.85;;;20.90;65.20;;;;;;5094940;28;20107;-74
2021/08/16 10:23:02;;;;;;;7.10;2.08;;;20.90;64.90;;;;;;5095217;28;20040;-74
2021/08/16 10:25:28;;;;;;;6.57;1.98;;;20.90;64.40;;;;;;5095611;28;20111;-73
2021/08/16 10:28:01;;;;;;;7.28;2.22;;;20.90;64.00;;;;;;5095248;28;20044;-73
2021/08/16 10:30:27;;;;;;;7.55;2.08;;;20.90;64.30;;;;;;5095188;28;20066;-74
2021/08/16 10:33:04;;;;;;;5.65;1.60;;;21.00;64.60;;;;;;5095204;28;20044;-73
2021/08/16 10:35:40;;;;;;;7.60;2.08;;;21.00;64.40;;;;;;5095463;28;20128;-74
2021/08/16 10:38:10;;;;;;;7.00;1.90;;;21.00;63.20;;;;;;5094981;28;20032;-74
2021/08/16 10:40:42;;;;;;;7.38;2.13;;;21.00;63.80;;;;;;5095008;28;20032;-74
2021/08/16 10:43:10;;;;;;;6.43;1.80;;;21.00;64.00;;;;;;5085964;28;20040;-73
2021/08/16 10:45:44;;;;;;;5.32;1.50;;;21.00;63.60;;;;;;5087466;28;20040;-74
2021/08/16 10:48:09;;;;;;;6.93;2.17;;;21.00;62.90;;;;;;5095038;28;20051;-73
2021/08/16 10:50:37;;;;;;;5.80;1.90;;;20.90;62.80;;;;;;5094858;28;20119;-74
2021/08/16 10:53:08;;;;;;;8.30;2.28;;;21.00;63.00;;;;;;5094983;28;20427;-74
2021/08/16 10:55:41;;;;;;;8.88;2.10;;;21.00;62.40;;;;;;5094905;28;20046;-74
2021/08/16 10:58:09;;;;;;;7.40;1.88;;;21.00;62.40;;;;;;5096189;28;20048;-74
2021/08/16 11:00:36;;;;;;;7.80;2.00;;;21.00;62.30;;;;;;5098214;28;20068;-74
2021/08/16 11:03:02;;;;;;;8.77;2.13;;;20.90;62.10;;;;;;5098891;28;20461;-74
2021/08/16 11:05:37;;;;;;;9.23;1.95;;;20.90;62.30;;;;;;5098452;28;20067;-74
2021/08/16 11:08:04;;;;;;;7.82;2.13;;;21.00;62.30;;;;;;5098369;28;20062;-74
2021/08/16 11:10:38;;;;;;;5.57;1.85;;;21.00;63.00;;;;;;5098463;28;20036;-74
2021/08/16 11:13:12;;;;;;;7.78;2.40;;;21.00;62.40;;;;;;5087341;28;20055;-74
2021/08/16 11:15:39;;;;;;;7.90;1.85;;;21.00;62.20;;;;;;5078466;28;20045;-74
2021/08/16 11:18:19;;;;;;;8.48;2.83;;;20.90;62.30;;;;;;5079684;28;20032;-71
2021/08/16 11:20:59;;;;;;;7.03;1.92;;;21.00;63.80;;;;;;5098116;28;20504;-71
2021/08/16 11:23:25;;;;;;;9.80;2.20;;;21.00;63.60;;;;;;5088519;28;20063;-72
2021/08/16 11:25:59;;;;;;;7.70;2.10;;;21.00;62.60;;;;;;5098099;28;20039;-73
2021/08/16 11:28:27;;;;;;;12.88;2.33;;;21.00;59.50;;;;;;5097944;28;20047;-72
2021/08/16 11:31:01;;;;;;;10.55;2.63;;;21.00;62.10;;;;;;5098469;28;20044;-73
2021/08/16 11:33:27;;;;;;;15.93;3.45;;;20.90;61.10;;;;;;5097592;28;20040;-71
2021/08/16 11:36:07;;;;;;;14.35;2.95;;;21.00;62.20;;;;;;5097931;28;20397;-75
2021/08/16 11:38:34;;;;;;;13.55;3.60;;;21.10;62.80;;;;;;5097671;28;20044;-70
2021/08/16 11:41:13;;;;;;;14.02;2.78;;;21.10;62.50;;;;;;5097816;28;20036;-71
2021/08/16 11:43:39;;;;;;;15.05;2.78;;;21.10;60.20;;;;;;5082041;28;20104;-70
2021/08/16 11:46:14;;;;;;;10.93;2.80;;;21.00;60.20;;;;;;5076902;28;20115;-70
2021/08/16 11:48:51;;;;;;;11.10;2.58;;;21.00;59.90;;;;;;5077365;28;20121;-70
2021/08/16 11:51:18;;;;;;;12.35;2.75;;;21.00;60.60;;;;;;5059514;28;20503;-72
2021/08/16 11:53:45;;;;;;;13.80;3.03;;;21.00;62.60;;;;;;5077339;28;20123;-72
2021/08/16 11:56:11;;;;;;;17.42;3.05;;;21.00;62.70;;;;;;5076419;28;20425;-70
2021/08/16 11:58:39;;;;;;;11.15;3.08;;;21.00;63.50;;;;;;5076665;28;20048;-70
2021/08/16 12:01:05;;;;;;;17.73;2.50;;;21.10;63.50;;;;;;5076762;28;20048;-71
2021/08/16 12:03:35;;;;;;;11.02;2.55;;;21.10;63.40;;;;;;5077079;28;20310;-71
2021/08/16 12:06:03;;;;;;;15.65;3.35;;;21.10;63.70;;;;;;5076755;28;20378;-71
2021/08/16 12:08:30;;;;;;;12.27;2.60;;;21.10;64.00;;;;;;5076301;28;20041;-70
2021/08/16 12:10:56;;;;;;;10.10;2.50;;;21.20;64.10;;;;;;5076164;28;20032;-70
2021/08/16 12:13:23;;;;;;;11.80;2.25;;;21.20;64.00;;;;;;5076469;28;20060;-72
2021/08/16 12:15:52;;;;;;;12.80;2.55;;;21.20;64.50;;;;;;5076684;28;20056;-70
2021/08/16 12:18:26;;;;;;;9.55;2.72;;;21.20;64.30;;;;;;5076586;28;20083;-70
2021/08/16 12:20:52;;;;;;;13.90;2.55;;;21.20;64.40;;;;;;5076453;28;20033;-70
2021/08/16 12:23:36;;;;;;;9.75;1.85;;;21.20;64.80;;;;;;5076231;28;20048;-70
2021/08/16 12:26:03;;;;;;;;;;;21.20;64.70;;;;;;5076964;28;20119;-70
2021/08/16 12:28:39;;;;;;;14.27;2.35;;;21.20;64.60;;;;;;5076441;28;19924;-70
2021/08/16 12:31:18;;;;;;;6.82;2.03;;;21.20;64.50;;;;;;5076436;28;20404;-71
2021/08/16 12:34:04;;;;;;;7.78;1.90;;;21.20;64.30;;;;;;5091177;28;20343;-70
2021/08/16 12:36:37;;;;;;;13.18;2.88;;;21.20;64.50;;;;;;5096180;28;20406;-71
2021/08/16 12:39:09;;;;;;;8.47;2.00;;;21.20;65.20;;;;;;5095925;28;20046;-70
2021/08/16 12:41:35;;;;;;;7.22;1.80;;;21.20;65.40;;;;;;5096571;28;20366;-70
2021/08/16 12:44:01;;;;;;;9.00;2.00;;;21.20;65.20;;;;;;5096328;28;20039;-70
2021/08/16 12:46:36;;;;;;;8.85;1.98;;;21.20;65.30;;;;;;5096151;28;20060;-70